createdAt,value
2023-02-14T00:06:20.857Z,27.40
2023-02-14T00:16:33.844Z,29.00
2023-02-14T00:26:46.868Z,26.80
2023-02-14T00:36:59.843Z,27.10
2023-02-14T00:47:12.873Z,28.70
2023-02-14T00:57:25.868Z,29.00
2023-02-14T01:07:38.869Z,25.80
2023-02-14T01:17:51.870Z,24.70
2023-02-14T01:28:04.918Z,23.20
2023-02-14T01:38:17.879Z,22.70
2023-02-14T01:48:30.929Z,22.70
2023-02-14T01:58:45.883Z,24.30
2023-02-14T02:09:18.934Z,22.90
2023-02-14T02:19:52.948Z,22.80
2023-02-14T02:30:23.019Z,21.00
2023-02-14T02:40:35.927Z,20.20
2023-02-14T02:51:09.972Z,22.20
2023-02-14T03:01:38.976Z,21.85
2023-02-14T03:12:00.960Z,20.40
2023-02-14T03:22:44.961Z,21.90
2023-02-14T03:33:13.997Z,20.50
2023-02-14T03:43:30.948Z,20.60
2023-02-14T03:53:47.007Z,19.10
2023-02-14T04:04:09.007Z,21.00
2023-02-14T04:14:22.004Z,19.40
2023-02-14T04:24:35.035Z,20.20
2023-02-14T04:34:47.989Z,20.40
2023-02-14T04:45:03.768Z,21.60
2023-02-14T04:55:17.999Z,20.40
2023-02-14T05:05:37.053Z,21.70
2023-02-14T05:15:50.058Z,20.40
2023-02-14T05:26:03.063Z,20.50
2023-02-14T05:36:17.035Z,20.30
2023-02-14T05:46:30.057Z,20.80
2023-02-14T05:56:43.064Z,20.90
2023-02-14T06:06:56.087Z,21.30
2023-02-14T06:17:09.106Z,20.30
2023-02-14T06:27:22.097Z,28.50
2023-02-14T06:37:35.087Z,22.80
2023-02-14T06:47:48.121Z,20.70
2023-02-14T06:58:01.088Z,20.90
2023-02-14T07:08:16.137Z,20.20
2023-02-14T07:18:29.094Z,20.30
2023-02-14T07:28:44.857Z,28.00
2023-02-14T07:38:58.108Z,25.10
2023-02-14T07:49:11.160Z,18.00
2023-02-14T07:59:25.930Z,19.20
2023-02-14T08:09:39.164Z,19.50
2023-02-14T08:19:52.139Z,21.40
2023-02-14T08:30:12.226Z,17.70
2023-02-14T08:40:25.140Z,18.90
2023-02-14T08:50:38.162Z,20.00
2023-02-14T09:00:51.265Z,20.00
2023-02-14T09:11:04.270Z,22.00
2023-02-14T09:21:32.161Z,19.40
2023-02-14T09:31:45.287Z,18.40
2023-02-14T09:42:31.196Z,18.50
2023-02-14T09:52:43.220Z,14.20
2023-02-14T10:03:05.197Z,13.60
2023-02-14T10:13:20.248Z,15.30
2023-02-14T10:23:57.215Z,15.70
2023-02-14T10:34:27.264Z,15.50
2023-02-14T10:45:10.213Z,14.60
2023-02-14T10:55:32.757Z,14.10
2023-02-14T11:05:55.274Z,12.60
2023-02-14T11:16:10.243Z,11.70
2023-02-14T11:26:33.305Z,13.90
2023-02-14T11:36:50.248Z,11.60
2023-02-14T11:47:06.456Z,11.10
2023-02-14T11:57:25.260Z,15.40
2023-02-14T12:07:44.338Z,13.90
2023-02-14T12:18:01.282Z,11.30
2023-02-14T12:28:19.358Z,9.00
2023-02-14T12:38:58.323Z,8.50
2023-02-14T12:49:44.326Z,9.50
2023-02-14T13:00:20.349Z,11.20
2023-02-14T13:10:33.371Z,11.00
2023-02-14T13:20:49.358Z,11.00
2023-02-14T13:31:03.763Z,9.90
2023-02-14T13:41:17.368Z,10.50
2023-02-14T13:51:30.376Z,11.20
2023-02-14T14:01:48.437Z,10.70
2023-02-14T14:12:01.388Z,8.80
2023-02-14T14:22:24.397Z,8.90
2023-02-14T14:32:39.369Z,10.30
2023-02-14T14:42:52.421Z,12.80
2023-02-14T14:53:08.398Z,10.80
2023-02-14T15:03:29.443Z,12.30
2023-02-14T15:14:01.421Z,14.55
2023-02-14T15:24:20.453Z,11.60
2023-02-14T15:34:40.464Z,15.10
2023-02-14T15:44:53.456Z,17.80
2023-02-14T15:55:06.461Z,22.20
2023-02-14T16:05:34.463Z,27.40
2023-02-14T16:15:52.519Z,36.60
2023-02-14T16:26:05.468Z,27.70
2023-02-14T16:36:27.464Z,28.90
2023-02-14T16:46:43.512Z,30.40
2023-02-14T16:57:09.460Z,25.20
2023-02-14T17:07:28.530Z,26.10
2023-02-14T17:17:43.492Z,42.10
2023-02-14T17:27:57.528Z,43.10
2023-02-14T17:38:10.541Z,51.10
2023-02-14T17:48:23.541Z,57.90
2023-02-14T17:58:36.523Z,57.10
2023-02-14T18:09:05.574Z,56.30
2023-02-14T18:19:20.542Z,65.90
2023-02-14T18:29:33.711Z,63.70
2023-02-14T18:39:46.563Z,87.10
2023-02-14T18:49:59.669Z,61.30
2023-02-14T19:00:14.559Z,41.60
2023-02-14T19:10:27.680Z,34.70
2023-02-14T19:20:40.604Z,36.80
2023-02-14T19:30:53.749Z,42.60
2023-02-14T19:41:06.575Z,42.90
2023-02-14T19:51:29.864Z,52.70
2023-02-14T20:01:46.629Z,51.30
2023-02-14T20:12:03.865Z,43.70
2023-02-14T20:22:16.647Z,42.30
2023-02-14T20:32:29.839Z,43.00
2023-02-14T20:42:42.639Z,49.40
2023-02-14T20:52:55.740Z,46.50
2023-02-14T21:03:08.700Z,46.70
2023-02-14T21:13:21.638Z,44.70
2023-02-14T21:23:34.785Z,46.50
2023-02-14T21:33:47.676Z,49.00
2023-02-14T21:44:02.730Z,62.30
2023-02-14T21:54:23.692Z,82.40
2023-02-14T22:04:42.725Z,94.60
2023-02-14T22:14:54.685Z,89.10
2023-02-14T22:25:07.741Z,73.10
2023-02-14T22:35:20.686Z,70.70
2023-02-14T22:45:33.733Z,70.90
2023-02-14T22:55:47.715Z,62.50
2023-02-14T23:06:13.782Z,49.30
2023-02-14T23:16:44.721Z,54.60
2023-02-14T23:26:57.772Z,34.10
2023-02-14T23:37:10.736Z,70.70
2023-02-14T23:47:23.768Z,43.50
2023-02-14T23:57:36.749Z,53.40
